createdAt,value
2022-10-20T00:01:16.805Z,9.83
2022-10-20T00:03:44.453Z,7.27
2022-10-20T00:06:14.214Z,7.63
2022-10-20T00:08:42.652Z,6.63
2022-10-20T00:11:11.136Z,6.30
2022-10-20T00:13:39.090Z,7.40
2022-10-20T00:16:06.354Z,6.37
2022-10-20T00:18:33.089Z,7.30
2022-10-20T00:21:00.026Z,6.57
2022-10-20T00:23:27.022Z,6.27
2022-10-20T00:26:26.681Z,6.60
2022-10-20T00:28:54.095Z,6.57
2022-10-20T00:31:22.769Z,6.90
2022-10-20T00:33:49.927Z,6.50
2022-10-20T00:36:19.476Z,7.03
2022-10-20T00:38:46.667Z,6.63
2022-10-20T00:41:18.838Z,6.30
2022-10-20T00:43:55.733Z,6.47
2022-10-20T00:46:41.191Z,6.47
2022-10-20T00:49:17.971Z,5.87
2022-10-20T00:51:44.911Z,7.33
2022-10-20T00:54:17.822Z,6.60
2022-10-20T00:56:47.169Z,7.70
2022-10-20T00:59:17.579Z,6.93
2022-10-20T01:01:45.599Z,6.70
2022-10-20T01:04:12.876Z,7.30
2022-10-20T01:06:39.724Z,6.73
2022-10-20T01:09:07.288Z,8.00
2022-10-20T01:11:52.413Z,6.90
2022-10-20T01:14:44.798Z,6.67
2022-10-20T01:17:17.580Z,7.30
2022-10-20T01:20:06.006Z,6.80
2022-10-20T01:22:47.051Z,6.50
2022-10-20T01:25:38.217Z,6.60
2022-10-20T01:28:17.490Z,6.93
2022-10-20T01:30:53.547Z,7.17
2022-10-20T01:33:55.969Z,7.00
2022-10-20T01:36:56.361Z,6.50
2022-10-20T01:39:40.280Z,7.33
2022-10-20T01:42:18.046Z,6.50
2022-10-20T01:44:46.814Z,7.80
2022-10-20T01:47:16.018Z,6.90
2022-10-20T01:49:45.120Z,6.70
2022-10-20T01:52:12.285Z,6.50
2022-10-20T01:54:38.996Z,7.20
2022-10-20T01:57:15.873Z,7.20
2022-10-20T02:00:05.515Z,7.70
2022-10-20T02:02:36.822Z,6.27
2022-10-20T02:05:03.895Z,7.53
2022-10-20T02:07:33.058Z,7.13
2022-10-20T02:10:18.279Z,6.63
2022-10-20T02:12:49.120Z,6.77
2022-10-20T02:15:20.846Z,6.47
2022-10-20T02:17:51.194Z,6.70
2022-10-20T02:20:18.034Z,6.80
2022-10-20T02:22:45.693Z,6.43
2022-10-20T02:25:13.715Z,6.60
2022-10-20T02:27:46.280Z,5.83
2022-10-20T02:30:17.240Z,6.33
2022-10-20T02:32:49.386Z,6.83
2022-10-20T02:35:30.744Z,5.90
2022-10-20T02:37:58.216Z,5.87
2022-10-20T02:40:25.441Z,6.37
2022-10-20T02:42:52.611Z,6.60
2022-10-20T02:45:19.988Z,6.77
2022-10-20T02:47:46.744Z,6.80
2022-10-20T02:50:13.501Z,6.80
2022-10-20T02:52:40.770Z,6.30
2022-10-20T02:55:07.965Z,6.40
2022-10-20T02:57:35.022Z,5.90
2022-10-20T03:00:01.953Z,6.20
2022-10-20T03:02:28.612Z,6.30
2022-10-20T03:04:55.342Z,6.60
2022-10-20T03:07:21.993Z,6.07
2022-10-20T03:09:49.013Z,5.47
2022-10-20T03:12:15.842Z,6.03
2022-10-20T03:14:42.928Z,6.00
2022-10-20T03:17:10.155Z,6.13
2022-10-20T03:19:36.995Z,6.10
2022-10-20T03:22:03.792Z,6.20
2022-10-20T03:24:30.556Z,5.80
2022-10-20T03:26:57.364Z,6.13
2022-10-20T03:29:24.045Z,5.90
2022-10-20T03:31:50.742Z,5.90
2022-10-20T03:34:17.457Z,5.97
2022-10-20T03:36:44.228Z,5.57
2022-10-20T03:39:11.063Z,5.37
2022-10-20T03:41:37.903Z,5.17
2022-10-20T03:44:04.679Z,5.47
2022-10-20T03:46:31.362Z,6.10
2022-10-20T03:48:58.161Z,5.90
2022-10-20T03:51:24.854Z,5.60
2022-10-20T03:53:51.515Z,5.30
2022-10-20T03:56:19.950Z,5.70
2022-10-20T03:58:47.439Z,5.00
2022-10-20T04:01:20.943Z,5.40
2022-10-20T04:03:47.949Z,5.13
2022-10-20T04:06:15.389Z,5.70
2022-10-20T04:08:42.187Z,5.67
2022-10-20T04:11:09.091Z,5.03
2022-10-20T04:13:35.852Z,5.47
2022-10-20T04:16:02.864Z,6.10
2022-10-20T04:18:29.509Z,4.27
2022-10-20T04:20:56.294Z,4.50
2022-10-20T04:23:23.060Z,4.70
2022-10-20T04:25:49.900Z,4.67
2022-10-20T04:28:18.602Z,5.07
2022-10-20T04:30:46.319Z,5.10
2022-10-20T04:33:13.309Z,5.30
2022-10-20T04:35:40.700Z,4.90
2022-10-20T04:38:07.841Z,4.97
2022-10-20T04:40:34.674Z,5.37
2022-10-20T04:43:01.678Z,4.80
2022-10-20T04:45:28.715Z,4.83
2022-10-20T04:47:55.436Z,5.33
2022-10-20T04:50:22.182Z,4.90
2022-10-20T04:52:48.886Z,5.90
2022-10-20T04:55:15.613Z,5.13
2022-10-20T04:57:42.351Z,5.20
2022-10-20T05:00:09.603Z,4.80
2022-10-20T05:02:36.330Z,4.40
2022-10-20T05:05:04.930Z,4.57
2022-10-20T05:07:31.710Z,5.60
2022-10-20T05:09:58.578Z,5.20
2022-10-20T05:12:25.467Z,5.13
2022-10-20T05:14:52.181Z,5.07
2022-10-20T05:17:18.979Z,4.47
2022-10-20T05:19:45.943Z,6.20
2022-10-20T05:22:12.795Z,5.43
2022-10-20T05:24:39.497Z,5.07
2022-10-20T05:27:06.172Z,4.70
2022-10-20T05:29:32.819Z,5.10
2022-10-20T05:31:59.588Z,5.47
2022-10-20T05:34:26.409Z,4.50
2022-10-20T05:36:54.365Z,4.70
2022-10-20T05:39:21.228Z,4.80
2022-10-20T05:41:48.038Z,4.43
2022-10-20T05:44:14.827Z,5.63
2022-10-20T05:46:42.584Z,5.00
2022-10-20T05:49:15.351Z,5.20
2022-10-20T05:51:42.298Z,5.53
2022-10-20T05:54:11.770Z,4.77
2022-10-20T05:56:38.895Z,5.93
2022-10-20T05:59:05.728Z,4.93
2022-10-20T06:01:47.971Z,16.30
2022-10-20T06:04:17.714Z,5.97
2022-10-20T06:06:44.478Z,6.60
2022-10-20T06:09:12.107Z,5.83
2022-10-20T06:11:39.811Z,5.50
2022-10-20T06:14:07.971Z,6.80
2022-10-20T06:16:34.930Z,6.93
2022-10-20T06:19:02.630Z,5.40
2022-10-20T06:21:32.240Z,6.37
2022-10-20T06:24:00.025Z,5.17
2022-10-20T06:26:37.750Z,4.70
2022-10-20T06:29:11.399Z,6.10
2022-10-20T06:31:46.513Z,7.90
2022-10-20T06:34:21.405Z,5.50
2022-10-20T06:36:48.490Z,5.73
2022-10-20T06:39:18.357Z,5.87
2022-10-20T06:41:52.968Z,6.00
2022-10-20T06:44:21.183Z,5.20
2022-10-20T06:46:47.945Z,5.93
2022-10-20T06:49:14.931Z,6.30
2022-10-20T06:51:41.761Z,5.60
2022-10-20T06:54:09.391Z,6.20
2022-10-20T06:56:37.138Z,5.90
2022-10-20T06:59:07.046Z,6.03
2022-10-20T07:01:36.216Z,6.13
2022-10-20T07:04:07.338Z,6.73
2022-10-20T07:06:42.754Z,5.80
2022-10-20T07:09:13.999Z,6.17
2022-10-20T07:11:41.881Z,7.57
2022-10-20T07:14:10.687Z,6.60
2022-10-20T07:16:37.372Z,6.20
2022-10-20T07:19:04.705Z,6.17
2022-10-20T07:21:35.740Z,5.90
2022-10-20T07:24:05.870Z,6.60
2022-10-20T07:26:36.088Z,6.20
2022-10-20T07:29:03.845Z,6.97
2022-10-20T07:31:32.039Z,7.13
2022-10-20T07:34:06.770Z,5.90
2022-10-20T07:36:42.794Z,6.47
2022-10-20T07:39:11.667Z,6.30
2022-10-20T07:41:39.663Z,5.90
2022-10-20T07:44:07.531Z,6.23
2022-10-20T07:46:34.976Z,6.87
2022-10-20T07:49:42.914Z,6.67
2022-10-20T07:51:48.484Z,6.57
2022-10-20T07:54:15.206Z,6.93
2022-10-20T07:56:43.173Z,6.40
2022-10-20T07:59:11.207Z,6.60
2022-10-20T08:01:38.530Z,7.10
2022-10-20T08:04:05.530Z,6.40
2022-10-20T08:06:32.410Z,6.63
2022-10-20T08:09:00.181Z,6.93
2022-10-20T08:11:27.385Z,6.40
2022-10-20T08:13:54.063Z,6.40
2022-10-20T08:16:32.010Z,6.70
2022-10-20T08:18:59.939Z,7.40
2022-10-20T08:21:26.689Z,6.30
2022-10-20T08:23:53.528Z,7.77
2022-10-20T08:26:22.737Z,6.10
2022-10-20T08:28:51.964Z,6.97
2022-10-20T08:31:18.873Z,7.10
2022-10-20T08:33:50.061Z,7.10
2022-10-20T08:36:30.164Z,5.90
2022-10-20T08:39:03.447Z,6.67
2022-10-20T08:42:02.754Z,6.30
2022-10-20T08:44:28.552Z,6.53
2022-10-20T08:46:55.527Z,7.20
2022-10-20T08:49:26.366Z,6.50
2022-10-20T08:51:53.554Z,6.90
2022-10-20T08:54:20.395Z,6.47
2022-10-20T08:56:47.713Z,6.30
2022-10-20T08:59:29.730Z,6.90
2022-10-20T09:01:57.791Z,7.13
2022-10-20T09:04:34.673Z,7.00
2022-10-20T09:07:05.742Z,7.30
2022-10-20T09:09:33.772Z,6.73
2022-10-20T09:12:06.418Z,7.17
2022-10-20T09:14:36.185Z,6.60
2022-10-20T09:17:04.611Z,6.80
2022-10-20T09:19:32.569Z,6.57
2022-10-20T09:22:05.528Z,7.10
2022-10-20T09:24:34.902Z,7.80
2022-10-20T09:27:21.329Z,7.07
2022-10-20T09:29:48.071Z,6.77
2022-10-20T09:32:51.167Z,7.10
2022-10-20T09:35:19.495Z,6.40
2022-10-20T09:37:52.998Z,6.93
2022-10-20T09:40:20.581Z,7.40
2022-10-20T09:42:52.641Z,6.37
2022-10-20T09:45:22.181Z,7.67
2022-10-20T09:47:56.247Z,7.00
2022-10-20T09:50:36.909Z,7.00
2022-10-20T09:53:07.352Z,8.20
2022-10-20T09:55:37.721Z,6.80
2022-10-20T09:58:05.790Z,7.87
2022-10-20T10:00:37.623Z,7.37
2022-10-20T10:03:22.119Z,7.57
2022-10-20T10:05:55.847Z,7.73
2022-10-20T10:08:25.511Z,8.03
2022-10-20T10:11:14.049Z,8.90
2022-10-20T10:13:44.689Z,10.90
2022-10-20T10:16:15.315Z,7.83
2022-10-20T10:18:48.501Z,8.57
2022-10-20T10:21:17.502Z,8.80
2022-10-20T10:23:56.041Z,7.53
2022-10-20T10:26:39.658Z,8.57
2022-10-20T10:29:20.609Z,8.97
2022-10-20T10:31:55.786Z,8.50
2022-10-20T10:34:31.984Z,9.30
2022-10-20T10:36:59.249Z,9.43
2022-10-20T10:39:26.140Z,9.07
2022-10-20T10:42:03.251Z,10.53
2022-10-20T10:44:46.702Z,10.13
2022-10-20T10:47:22.687Z,9.97
2022-10-20T10:50:12.487Z,10.63
2022-10-20T10:52:45.766Z,10.40
2022-10-20T10:55:47.109Z,9.73
2022-10-20T10:58:39.434Z,11.10
2022-10-20T11:01:06.505Z,10.43
2022-10-20T11:03:54.920Z,9.70
2022-10-20T11:06:32.551Z,10.43
2022-10-20T11:09:04.980Z,9.80
2022-10-20T11:11:49.713Z,10.97
2022-10-20T11:14:55.558Z,10.40
2022-10-20T11:17:25.194Z,11.67
2022-10-20T11:20:24.317Z,11.10
2022-10-20T11:23:09.175Z,12.50
2022-10-20T11:25:44.638Z,12.37
2022-10-20T11:28:33.373Z,11.40
2022-10-20T11:31:00.884Z,10.93
2022-10-20T11:33:42.167Z,11.60
2022-10-20T11:36:22.106Z,10.80
2022-10-20T11:38:52.460Z,12.30
2022-10-20T11:41:38.070Z,12.77
2022-10-20T11:44:39.987Z,12.37
2022-10-20T11:47:11.017Z,12.07
2022-10-20T11:49:40.434Z,12.43
2022-10-20T11:52:21.948Z,12.67
2022-10-20T11:55:18.631Z,13.77
2022-10-20T11:58:22.792Z,13.40
2022-10-20T12:01:07.005Z,14.40
2022-10-20T12:03:49.990Z,14.67
2022-10-20T12:06:49.553Z,14.50
2022-10-20T12:09:43.109Z,14.10
2022-10-20T12:12:32.654Z,14.33
2022-10-20T12:15:19.712Z,14.20
2022-10-20T12:17:47.650Z,14.73
2022-10-20T12:20:20.473Z,13.73
2022-10-20T12:22:50.561Z,14.03
2022-10-20T12:25:24.270Z,14.87
2022-10-20T12:28:24.882Z,13.97
2022-10-20T12:31:00.777Z,14.23
2022-10-20T12:33:41.891Z,14.27
2022-10-20T12:36:17.714Z,14.67
2022-10-20T12:39:08.285Z,14.80
2022-10-20T12:41:39.514Z,15.90
2022-10-20T12:44:14.359Z,14.67
2022-10-20T12:46:51.549Z,15.20
2022-10-20T12:49:51.836Z,14.43
2022-10-20T12:52:23.554Z,14.37
2022-10-20T12:55:25.801Z,13.97
2022-10-20T12:58:18.771Z,14.40
2022-10-20T13:00:48.303Z,14.10
2022-10-20T13:03:39.713Z,13.60
2022-10-20T13:06:27.562Z,13.40
2022-10-20T13:09:03.705Z,12.80
2022-10-20T13:11:42.615Z,13.00
2022-10-20T13:14:12.409Z,13.60
2022-10-20T13:17:07.387Z,13.97
2022-10-20T13:19:48.804Z,14.23
2022-10-20T13:22:33.149Z,14.63
2022-10-20T13:25:02.926Z,12.63
2022-10-20T13:27:29.960Z,13.33
2022-10-20T13:29:57.017Z,14.87
2022-10-20T13:33:33.198Z,13.23
2022-10-20T13:36:08.224Z,13.27
2022-10-20T13:38:58.572Z,14.20
2022-10-20T13:41:34.097Z,12.80
2022-10-20T13:44:32.864Z,14.23
2022-10-20T13:47:06.202Z,13.73
2022-10-20T13:49:52.534Z,13.17
2022-10-20T13:52:21.471Z,14.00
2022-10-20T13:54:50.918Z,13.47
2022-10-20T13:57:23.746Z,12.80
2022-10-20T14:00:02.340Z,13.27
2022-10-20T14:02:32.317Z,12.37
2022-10-20T14:05:13.661Z,13.10
2022-10-20T14:07:45.012Z,12.03
2022-10-20T14:10:28.455Z,13.47
2022-10-20T14:12:56.365Z,11.80
2022-10-20T14:15:49.538Z,11.80
2022-10-20T14:18:32.627Z,11.50
2022-10-20T14:21:21.999Z,11.57
2022-10-20T14:23:50.808Z,11.87
2022-10-20T14:26:20.790Z,12.37
2022-10-20T14:28:49.861Z,13.00
2022-10-20T14:31:20.294Z,13.77
2022-10-20T14:33:48.368Z,12.50
2022-10-20T14:36:30.810Z,13.33
2022-10-20T14:39:01.049Z,13.43
2022-10-20T14:41:35.579Z,12.70
2022-10-20T14:44:16.256Z,14.00
2022-10-20T14:46:50.347Z,14.17
2022-10-20T14:49:27.016Z,13.40
2022-10-20T14:52:01.371Z,14.13
2022-10-20T14:54:30.969Z,14.53
2022-10-20T14:56:59.012Z,14.90
2022-10-20T14:59:32.859Z,15.33
2022-10-20T15:02:12.532Z,14.87
2022-10-20T15:04:43.341Z,13.90
2022-10-20T15:07:23.015Z,15.17
2022-10-20T15:09:52.939Z,15.80
2022-10-20T15:12:25.753Z,16.53
2022-10-20T15:15:02.242Z,15.37
2022-10-20T15:17:35.280Z,15.77
2022-10-20T15:20:30.295Z,14.70
2022-10-20T15:22:58.542Z,15.90
2022-10-20T15:25:26.959Z,17.33
2022-10-20T15:27:56.051Z,16.23
2022-10-20T15:30:24.664Z,15.87
2022-10-20T15:32:52.445Z,15.37
2022-10-20T15:35:22.333Z,16.80
2022-10-20T15:37:53.534Z,15.70
2022-10-20T15:40:21.611Z,15.43
2022-10-20T15:42:49.326Z,15.90
2022-10-20T15:45:22.117Z,16.60
2022-10-20T15:47:48.935Z,16.00
2022-10-20T15:50:16.159Z,16.63
2022-10-20T15:52:42.912Z,17.70
2022-10-20T15:55:22.674Z,16.03
2022-10-20T15:57:51.091Z,17.23
2022-10-20T16:00:19.137Z,16.40
2022-10-20T16:02:46.338Z,17.03
2022-10-20T16:05:13.467Z,16.63
2022-10-20T16:07:40.269Z,17.30
2022-10-20T16:10:08.321Z,16.90
2022-10-20T16:12:36.144Z,18.30
2022-10-20T16:15:04.383Z,17.90
2022-10-20T16:17:31.033Z,16.67
2022-10-20T16:19:57.934Z,18.70
2022-10-20T16:22:26.418Z,16.63
2022-10-20T16:24:53.270Z,17.33
2022-10-20T16:27:19.942Z,19.30
2022-10-20T16:29:49.085Z,18.47
2022-10-20T16:32:16.736Z,18.63
2022-10-20T16:34:43.466Z,18.23
2022-10-20T16:37:10.252Z,19.50
2022-10-20T16:39:36.998Z,18.90
2022-10-20T16:42:03.855Z,19.63
2022-10-20T16:44:30.860Z,19.73
2022-10-20T16:46:57.981Z,19.97
2022-10-20T16:49:24.826Z,18.87
2022-10-20T16:51:52.178Z,19.87
2022-10-20T16:54:19.203Z,20.73
2022-10-20T16:56:46.143Z,18.73
2022-10-20T16:59:12.837Z,18.87
2022-10-20T17:01:39.661Z,17.67
2022-10-20T17:04:06.749Z,19.13
2022-10-20T17:06:33.757Z,19.53
2022-10-20T17:09:00.684Z,18.70
2022-10-20T17:11:29.731Z,20.27
2022-10-20T17:13:57.379Z,19.33
2022-10-20T17:16:32.258Z,18.60
2022-10-20T17:19:02.030Z,19.30
2022-10-20T17:21:31.202Z,20.00
2022-10-20T17:23:58.521Z,18.33
2022-10-20T17:26:27.436Z,19.30
2022-10-20T17:28:55.254Z,18.60
2022-10-20T17:31:22.649Z,19.17
2022-10-20T17:33:49.421Z,19.80
2022-10-20T17:36:16.308Z,17.37
2022-10-20T17:38:43.475Z,19.20
2022-10-20T17:41:15.699Z,18.70
2022-10-20T17:43:42.545Z,19.10
2022-10-20T17:46:14.785Z,18.47
2022-10-20T17:48:41.791Z,18.80
2022-10-20T17:51:12.207Z,18.17
2022-10-20T17:53:41.749Z,19.80
2022-10-20T17:56:15.030Z,17.70
2022-10-20T17:58:43.130Z,18.80
2022-10-20T18:01:30.995Z,19.90
2022-10-20T18:04:00.433Z,18.53
2022-10-20T18:06:33.813Z,20.40
2022-10-20T18:09:05.264Z,18.37
2022-10-20T18:11:34.718Z,20.13
2022-10-20T18:14:02.200Z,18.53
2022-10-20T18:16:32.825Z,20.70
2022-10-20T18:19:01.428Z,19.50
2022-10-20T18:21:30.109Z,18.60
2022-10-20T18:23:59.719Z,18.27
2022-10-20T18:26:26.553Z,18.67
2022-10-20T18:28:53.905Z,16.90
2022-10-20T18:31:24.789Z,19.30
2022-10-20T18:33:58.174Z,18.17
2022-10-20T18:36:27.330Z,19.03
2022-10-20T18:38:55.043Z,17.53
2022-10-20T18:41:25.088Z,18.40
2022-10-20T18:43:59.665Z,20.30
2022-10-20T18:46:28.536Z,17.53
2022-10-20T18:48:56.449Z,19.30
2022-10-20T18:51:23.384Z,18.33
2022-10-20T18:53:53.825Z,18.20
2022-10-20T18:56:22.766Z,19.60
2022-10-20T18:58:55.563Z,17.87
2022-10-20T19:01:25.227Z,18.20
2022-10-20T19:03:56.634Z,18.03
2022-10-20T19:06:24.859Z,20.10
2022-10-20T19:08:57.565Z,18.70
2022-10-20T19:11:26.949Z,17.60
2022-10-20T19:13:54.661Z,19.03
2022-10-20T19:16:24.865Z,19.30
2022-10-20T19:18:54.223Z,19.13
2022-10-20T19:21:21.942Z,19.77
2022-10-20T19:23:55.858Z,18.57
2022-10-20T19:26:26.093Z,20.03
2022-10-20T19:29:00.089Z,17.70
2022-10-20T19:31:40.098Z,19.17
2022-10-20T19:34:18.378Z,19.67
2022-10-20T19:36:48.330Z,18.10
2022-10-20T19:41:55.739Z,18.97
2022-10-20T19:44:22.734Z,18.80
2022-10-20T19:46:51.548Z,17.97
2022-10-20T19:49:20.984Z,19.40
2022-10-20T19:51:48.066Z,19.20
2022-10-20T19:54:15.188Z,19.60
2022-10-20T19:56:41.986Z,20.00
2022-10-20T19:59:09.410Z,18.77
2022-10-20T20:01:36.280Z,19.73
2022-10-20T20:04:03.925Z,18.47
2022-10-20T20:06:30.938Z,19.73
2022-10-20T20:09:00.241Z,19.37
2022-10-20T20:11:30.602Z,19.60
2022-10-20T20:14:06.152Z,19.97
2022-10-20T20:16:32.938Z,19.27
2022-10-20T20:18:59.757Z,20.90
2022-10-20T20:21:26.859Z,20.00
2022-10-20T20:24:01.766Z,20.40
2022-10-20T20:26:30.320Z,21.20
2022-10-20T20:28:57.505Z,20.27
2022-10-20T20:31:24.841Z,21.03
2022-10-20T20:33:52.427Z,20.63
2022-10-20T20:36:19.429Z,20.50
2022-10-20T20:38:46.305Z,20.97
2022-10-20T20:41:15.830Z,20.00
2022-10-20T20:43:45.092Z,21.33
2022-10-20T20:46:14.395Z,20.80
2022-10-20T20:48:41.493Z,21.60
2022-10-20T20:51:08.865Z,20.40
2022-10-20T20:53:36.710Z,21.70
2022-10-20T20:56:14.945Z,22.37
2022-10-20T20:58:45.056Z,22.93
2022-10-20T21:01:15.883Z,22.13
2022-10-20T21:03:43.415Z,21.40
2022-10-20T21:06:22.979Z,20.97
2022-10-20T21:08:56.315Z,20.53
2022-10-20T21:11:25.390Z,20.47
2022-10-20T21:13:54.475Z,20.67
2022-10-20T21:16:25.770Z,21.40
2022-10-20T21:18:55.318Z,21.50
2022-10-20T21:21:27.501Z,21.57
2022-10-20T21:23:54.690Z,20.50
2022-10-20T21:26:22.356Z,22.30
2022-10-20T21:28:50.931Z,22.27
2022-10-20T21:31:20.178Z,21.70
2022-10-20T21:33:50.508Z,23.13
2022-10-20T21:36:19.453Z,22.10
2022-10-20T21:38:46.835Z,20.60
2022-10-20T21:41:16.782Z,20.50
2022-10-20T21:43:46.500Z,23.17
2022-10-20T21:46:25.048Z,23.20
2022-10-20T21:48:54.198Z,20.27
2022-10-20T21:51:26.572Z,21.07
2022-10-20T21:54:04.181Z,20.33
2022-10-20T21:56:34.123Z,21.70
2022-10-20T21:59:00.795Z,22.10
2022-10-20T22:01:27.559Z,21.87
2022-10-20T22:03:54.927Z,20.40
2022-10-20T22:06:24.101Z,20.43
2022-10-20T22:08:53.495Z,20.70
2022-10-20T22:11:24.707Z,22.67
2022-10-20T22:13:51.674Z,22.57
2022-10-20T22:16:22.224Z,20.10
2022-10-20T22:18:49.047Z,22.33
2022-10-20T22:21:18.154Z,20.90
2022-10-20T22:23:45.408Z,21.43
2022-10-20T22:26:12.571Z,21.30
2022-10-20T22:28:40.065Z,21.00
2022-10-20T22:31:07.465Z,20.50
2022-10-20T22:33:34.633Z,20.63
2022-10-20T22:36:01.814Z,18.83
2022-10-20T22:38:28.491Z,20.17
2022-10-20T22:41:03.061Z,19.63
2022-10-20T22:43:31.250Z,19.73
2022-10-20T22:45:58.267Z,18.80
2022-10-20T22:48:25.506Z,21.10
2022-10-20T22:50:52.319Z,19.27
2022-10-20T22:53:19.374Z,18.60
2022-10-20T22:55:46.376Z,19.60
2022-10-20T22:58:13.362Z,17.93
2022-10-20T23:00:41.174Z,19.37
2022-10-20T23:03:07.996Z,20.10
2022-10-20T23:05:35.061Z,18.37
2022-10-20T23:08:01.799Z,18.03
2022-10-20T23:10:29.224Z,18.30
2022-10-20T23:12:55.883Z,17.30
2022-10-20T23:15:23.282Z,18.53
2022-10-20T23:17:49.993Z,17.53
2022-10-20T23:20:16.860Z,18.97
2022-10-20T23:22:43.609Z,18.67
2022-10-20T23:25:10.338Z,19.30
2022-10-20T23:27:37.347Z,19.23
2022-10-20T23:30:04.553Z,18.57
2022-10-20T23:32:31.267Z,18.00
2022-10-20T23:34:58.560Z,16.67
2022-10-20T23:37:25.317Z,17.30
2022-10-20T23:39:51.964Z,18.77
2022-10-20T23:42:18.686Z,18.70
2022-10-20T23:44:45.498Z,16.93
2022-10-20T23:47:12.375Z,18.30
2022-10-20T23:49:39.311Z,17.00
2022-10-20T23:52:06.089Z,18.80
2022-10-20T23:54:33.018Z,17.90
2022-10-20T23:56:59.949Z,16.33
2022-10-20T23:59:26.946Z,17.70
